Time,TemperatureF,DewpointF,PressureIn,WindDirection,WindDirectionDegrees,WindSpeedMPH,WindSpeedGustMPH,Humidity,HourlyPrecipIn,Conditions,Clouds,dailyrainin,SoftwareType,DateUTC
2013-06-29 00:01:00,62.0,55.0,30.35,SE,135,2.0,3.0,79,0.00,,,0.00,,2013-06-29 06:01:00,
2013-06-29 00:11:00,62.0,56.0,30.35,South,180,0.0,3.0,80,0.00,,,0.00,,2013-06-29 06:11:00,
2013-06-29 00:22:00,61.0,55.0,30.35,SE,135,2.0,3.0,81,0.00,,,0.00,,2013-06-29 06:22:00,
2013-06-29 00:33:00,61.0,55.0,30.35,SE,135,0.0,2.0,81,0.00,,,0.00,,2013-06-29 06:33:00,
2013-06-29 00:43:00,61.0,55.0,30.35,South,180,1.0,2.0,82,0.00,,,0.00,,2013-06-29 06:43:00,
2013-06-29 00:53:00,61.0,55.0,30.35,SE,135,1.0,2.0,82,0.00,,,0.00,,2013-06-29 06:53:00,
2013-06-29 01:02:00,60.0,54.0,30.35,South,180,0.0,1.0,82,0.00,,,0.00,,2013-06-29 07:02:00,
2013-06-29 01:12:00,60.0,55.0,30.35,South,180,2.0,3.0,83,0.00,,,0.00,,2013-06-29 07:12:00,
2013-06-29 01:33:00,60.0,55.0,30.35,SE,135,2.0,2.0,84,0.00,,,0.00,,2013-06-29 07:33:00,
2013-06-29 01:43:00,60.0,55.0,30.35,South,180,1.0,2.0,84,0.00,,,0.00,,2013-06-29 07:43:00,
2013-06-29 01:53:00,60.0,55.0,30.35,SE,135,2.0,3.0,85,0.00,,,0.00,,2013-06-29 07:53:00,
2013-06-29 02:01:00,60.0,55.0,30.35,SE,135,2.0,3.0,85,0.00,,,0.00,,2013-06-29 08:01:00,
2013-06-29 02:11:00,60.0,56.0,30.35,SE,135,2.0,2.0,86,0.00,,,0.00,,2013-06-29 08:11:00,
2013-06-29 02:21:00,59.0,55.0,30.35,SE,135,2.0,3.0,86,0.00,,,0.00,,2013-06-29 08:21:00,
2013-06-29 02:33:00,59.0,55.0,30.35,SE,135,1.0,2.0,86,0.00,,,0.00,,2013-06-29 08:33:00,
2013-06-29 02:43:00,59.0,55.0,30.35,South,180,1.0,3.0,87,0.00,,,0.00,,2013-06-29 08:43:00,
2013-06-29 02:52:00,59.0,55.0,30.35,South,180,1.0,3.0,87,0.00,,,0.00,,2013-06-29 08:52:00,
2013-06-29 03:02:00,59.0,55.0,30.35,SW,225,1.0,2.0,88,0.00,,,0.00,,2013-06-29 09:02:00,
2013-06-29 03:12:00,59.0,55.0,30.35,SE,135,2.0,3.0,88,0.00,,,0.00,,2013-06-29 09:12:00,
2013-06-29 03:22:00,59.0,55.0,30.34,SE,135,0.0,2.0,88,0.00,,,0.00,,2013-06-29 09:22:00,
2013-06-29 03:33:00,58.0,55.0,30.35,South,180,2.0,3.0,89,0.00,,,0.00,,2013-06-29 09:33:00,
2013-06-29 03:42:00,58.0,55.0,30.35,SE,135,1.0,2.0,89,0.00,,,0.00,,2013-06-29 09:42:00,
2013-06-29 03:53:00,58.0,55.0,30.34,South,180,0.0,4.0,90,0.00,,,0.00,,2013-06-29 09:53:00,
2013-06-29 04:01:00,58.0,55.0,30.34,SE,135,1.0,2.0,90,0.00,,,0.00,,2013-06-29 10:01:00,
2013-06-29 04:11:00,58.0,55.0,30.34,SE,135,1.0,3.0,90,0.00,,,0.00,,2013-06-29 10:11:00,
2013-06-29 04:33:00,58.0,55.0,30.34,SE,135,1.0,2.0,91,0.00,,,0.00,,2013-06-29 10:33:00,
2013-06-29 04:42:00,58.0,55.0,30.34,SE,135,2.0,2.0,91,0.00,,,0.00,,2013-06-29 10:42:00,
2013-06-29 04:52:00,58.0,55.0,30.34,South,180,2.0,2.0,91,0.00,,,0.00,,2013-06-29 10:52:00,
2013-06-29 05:01:00,58.0,55.0,30.33,SE,135,2.0,3.0,91,0.00,,,0.00,,2013-06-29 11:01:00,
2013-06-29 05:11:00,58.0,55.0,30.33,SE,135,1.0,2.0,91,0.00,,,0.00,,2013-06-29 11:11:00,
2013-06-29 05:23:00,58.0,55.0,30.34,SE,135,2.0,2.0,91,0.00,,,0.00,,2013-06-29 11:23:00,
2013-06-29 05:33:00,57.0,54.0,30.33,South,180,2.0,4.0,91,0.00,,,0.00,,2013-06-29 11:33:00,
2013-06-29 05:43:00,57.0,54.0,30.33,SE,135,2.0,3.0,91,0.00,,,0.00,,2013-06-29 11:43:00,
2013-06-29 05:53:00,57.0,55.0,30.34,East,90,1.0,2.0,92,0.00,,,0.00,,2013-06-29 11:53:00,
2013-06-29 06:02:00,57.0,55.0,30.34,South,180,2.0,2.0,92,0.00,,,0.00,,2013-06-29 12:02:00,
2013-06-29 06:11:00,56.0,54.0,30.34,SE,135,1.0,2.0,92,0.00,,,0.00,,2013-06-29 12:11:00,
2013-06-29 06:22:00,56.0,54.0,30.34,South,180,0.0,2.0,93,0.00,,,0.00,,2013-06-29 12:22:00,
2013-06-29 06:34:00,56.0,54.0,30.34,South,180,1.0,2.0,93,0.00,,,0.00,,2013-06-29 12:34:00,
2013-06-29 06:43:00,56.0,54.0,30.34,South,180,1.0,3.0,94,0.00,,,0.00,,2013-06-29 12:43:00,
2013-06-29 06:52:00,56.0,54.0,30.34,SE,135,1.0,2.0,94,0.00,,,0.00,,2013-06-29 12:52:00,
2013-06-29 07:02:00,57.0,56.0,30.34,South,180,2.0,2.0,95,0.00,,,0.00,,2013-06-29 13:02:00,
2013-06-29 07:23:00,59.0,58.0,30.34,SE,135,1.0,2.0,95,0.00,,,0.00,,2013-06-29 13:23:00,
2013-06-29 08:02:00,62.0,58.0,30.34,SE,135,1.0,2.0,88,0.00,,,0.00,,2013-06-29 14:02:00,
2013-06-29 08:12:00,63.0,59.0,30.34,South,180,0.0,1.0,88,0.00,,,0.00,,2013-06-29 14:12:00,
2013-06-29 08:44:00,66.0,61.0,30.34,South,180,0.0,0.0,85,0.00,,,0.00,,2013-06-29 14:44:00,
2013-06-29 10:12:00,76.0,59.0,30.38,NW,315,6.0,8.0,56,0.00,,,0.00,,2013-06-29 16:12:00,
2013-06-29 10:22:00,74.0,57.0,30.39,NE,45,1.0,7.0,56,0.00,,,0.00,,2013-06-29 16:22:00,
2013-06-29 10:33:00,72.0,58.0,30.39,SE,135,2.0,3.0,61,0.00,,,0.00,,2013-06-29 16:33:00,
2013-06-29 10:43:00,73.0,59.0,30.39,SW,225,1.0,4.0,61,0.00,,,0.00,,2013-06-29 16:43:00,
2013-06-29 10:53:00,73.0,59.0,30.39,SE,135,0.0,6.0,62,0.00,,,0.00,,2013-06-29 16:53:00,
2013-06-29 11:01:00,73.0,60.0,30.38,East,90,1.0,3.0,63,0.00,,,0.00,,2013-06-29 17:01:00,
2013-06-29 11:11:00,73.0,60.0,30.37,NE,45,1.0,2.0,64,0.00,,,0.00,,2013-06-29 17:11:00,
2013-06-29 11:22:00,72.0,60.0,30.36,NW,315,0.0,3.0,65,0.00,,,0.00,,2013-06-29 17:22:00,
2013-06-29 11:52:00,72.0,61.0,30.35,SW,225,1.0,4.0,68,0.00,,,0.00,,2013-06-29 17:52:00,
2013-06-29 13:43:00,80.0,63.0,30.32,WNW,293,4.0,10.0,56,0.00,,,0.00,,2013-06-29 19:43:00,
2013-06-29 13:54:00,81.0,66.0,30.32,West,270,3.0,9.0,60,0.00,,,0.00,,2013-06-29 19:54:00,
2013-06-29 14:11:00,82.0,65.0,30.31,North,0,3.0,9.0,57,0.00,,,0.00,,2013-06-29 20:11:00,
2013-06-29 14:33:00,83.0,65.0,30.31,NW,315,2.0,7.0,55,0.00,,,0.00,,2013-06-29 20:33:00,
2013-06-29 14:43:00,82.0,65.0,30.31,NW,315,3.0,7.0,56,0.00,,,0.00,,2013-06-29 20:43:00,
2013-06-29 14:52:00,81.0,64.0,30.32,WNW,293,3.0,6.0,57,0.00,,,0.00,,2013-06-29 20:52:00,
2013-06-29 15:01:00,80.0,63.0,30.31,NE,45,1.0,5.0,57,0.00,,,0.00,,2013-06-29 21:01:00,
2013-06-29 15:11:00,79.0,63.0,30.32,NW,315,2.0,5.0,58,0.00,,,0.00,,2013-06-29 21:11:00,
2013-06-29 15:22:00,79.0,62.0,30.32,NW,315,4.0,8.0,57,0.00,,,0.00,,2013-06-29 21:22:00,
2013-06-29 15:32:00,81.0,64.0,30.32,NW,315,2.0,5.0,56,0.00,,,0.00,,2013-06-29 21:32:00,
2013-06-29 15:42:00,82.0,63.0,30.31,East,90,1.0,4.0,53,0.00,,,0.00,,2013-06-29 21:42:00,
2013-06-29 15:52:00,82.0,62.0,30.30,SE,135,3.0,7.0,51,0.00,,,0.00,,2013-06-29 21:52:00,
2013-06-29 16:01:00,82.0,61.0,30.30,South,180,2.0,5.0,50,0.00,,,0.00,,2013-06-29 22:01:00,
2013-06-29 16:11:00,82.0,62.0,30.30,West,270,3.0,9.0,51,0.00,,,0.00,,2013-06-29 22:11:00,
2013-06-29 16:21:00,83.0,61.0,30.29,North,0,4.0,8.0,48,0.00,,,0.00,,2013-06-29 22:21:00,
2013-06-29 16:33:00,82.0,63.0,30.29,NW,315,3.0,8.0,53,0.00,,,0.00,,2013-06-29 22:33:00,
2013-06-29 16:43:00,82.0,63.0,30.29,North,0,2.0,11.0,53,0.00,,,0.00,,2013-06-29 22:43:00,
2013-06-29 16:53:00,82.0,63.0,30.29,East,90,4.0,11.0,52,0.00,,,0.00,,2013-06-29 22:53:00,
2013-06-29 17:02:00,82.0,61.0,30.30,North,0,4.0,7.0,50,0.00,,,0.00,,2013-06-29 23:02:00,
2013-06-29 17:12:00,82.0,60.0,30.29,NW,315,2.0,11.0,47,0.00,,,0.00,,2013-06-29 23:12:00,
2013-06-29 17:23:00,82.0,58.0,30.29,NE,45,6.0,9.0,44,0.00,,,0.00,,2013-06-29 23:23:00,
2013-06-29 17:33:00,82.0,59.0,30.28,NW,315,3.0,10.0,45,0.00,,,0.00,,2013-06-29 23:33:00,
2013-06-29 17:43:00,82.0,57.0,30.28,South,180,3.0,11.0,43,0.00,,,0.00,,2013-06-29 23:43:00,
2013-06-29 17:52:00,82.0,57.0,30.28,WNW,293,2.0,8.0,43,0.00,,,0.00,,2013-06-29 23:52:00,
2013-06-29 18:01:00,82.0,58.0,30.28,NE,45,2.0,4.0,44,0.00,,,0.00,,2013-06-30 00:01:00,
2013-06-29 18:11:00,82.0,57.0,30.27,NW,315,3.0,11.0,42,0.00,,,0.00,,2013-06-30 00:11:00,
2013-06-29 18:22:00,81.0,57.0,30.27,NW,315,3.0,8.0,44,0.00,,,0.00,,2013-06-30 00:22:00,
2013-06-29 18:33:00,82.0,56.0,30.27,South,180,3.0,13.0,41,0.00,,,0.00,,2013-06-30 00:33:00,
2013-06-29 18:42:00,83.0,56.0,30.27,WNW,293,7.0,14.0,40,0.00,,,0.00,,2013-06-30 00:42:00,
2013-06-29 18:52:00,82.0,55.0,30.27,North,0,2.0,8.0,40,0.00,,,0.00,,2013-06-30 00:52:00,
2013-06-29 19:01:00,82.0,55.0,30.27,NW,315,4.0,8.0,40,0.00,,,0.00,,2013-06-30 01:01:00,
2013-06-29 19:11:00,82.0,55.0,30.26,North,0,4.0,8.0,40,0.00,,,0.00,,2013-06-30 01:11:00,
2013-06-29 19:22:00,81.0,56.0,30.25,NE,45,2.0,7.0,42,0.00,,,0.00,,2013-06-30 01:22:00,
2013-06-29 19:33:00,81.0,58.0,30.25,South,180,0.0,3.0,45,0.00,,,0.00,,2013-06-30 01:33:00,
2013-06-29 19:43:00,81.0,57.0,30.24,North,0,3.0,6.0,44,0.00,,,0.00,,2013-06-30 01:43:00,
2013-06-29 19:53:00,81.0,57.0,30.24,West,270,1.0,3.0,44,0.00,,,0.00,,2013-06-30 01:53:00,
2013-06-29 20:02:00,80.0,57.0,30.24,East,90,0.0,2.0,46,0.00,,,0.00,,2013-06-30 02:02:00,
2013-06-29 20:11:00,80.0,56.0,30.24,SE,135,0.0,2.0,44,0.00,,,0.00,,2013-06-30 02:11:00,
2013-06-29 20:23:00,80.0,59.0,30.24,South,180,0.0,2.0,48,0.00,,,0.00,,2013-06-30 02:23:00,
2013-06-29 20:33:00,79.0,56.0,30.24,NW,315,0.0,3.0,46,0.00,,,0.00,,2013-06-30 02:33:00,
2013-06-29 20:43:00,78.0,56.0,30.24,West,270,0.0,2.0,46,0.00,,,0.00,,2013-06-30 02:43:00,
2013-06-29 20:53:00,77.0,57.0,30.23,South,180,1.0,2.0,50,0.00,,,0.00,,2013-06-30 02:53:00,
2013-06-29 21:01:00,76.0,57.0,30.23,South,180,1.0,2.0,51,0.00,,,0.00,,2013-06-30 03:01:00,
2013-06-29 21:11:00,74.0,56.0,30.23,South,180,2.0,3.0,53,0.00,,,0.00,,2013-06-30 03:11:00,
2013-06-29 21:22:00,73.0,56.0,30.23,South,180,1.0,3.0,56,0.00,,,0.00,,2013-06-30 03:22:00,
2013-06-29 21:33:00,71.0,55.0,30.23,South,180,2.0,3.0,57,0.00,,,0.00,,2013-06-30 03:33:00,
2013-06-29 21:43:00,70.0,55.0,30.23,South,180,2.0,3.0,59,0.00,,,0.00,,2013-06-30 03:43:00,
2013-06-29 21:53:00,70.0,55.0,30.23,South,180,2.0,3.0,59,0.00,,,0.00,,2013-06-30 03:53:00,
2013-06-29 22:01:00,69.0,56.0,30.23,South,180,0.0,3.0,63,0.00,,,0.00,,2013-06-30 04:01:00,
2013-06-29 22:12:00,68.0,54.0,30.23,South,180,1.0,2.0,62,0.00,,,0.00,,2013-06-30 04:12:00,
2013-06-29 22:22:00,67.0,54.0,30.24,NE,45,0.0,0.0,64,0.00,,,0.00,,2013-06-30 04:22:00,
2013-06-29 22:33:00,65.0,53.0,30.24,SE,135,1.0,2.0,66,0.00,,,0.00,,2013-06-30 04:33:00,
2013-06-29 22:43:00,64.0,53.0,30.24,SE,135,2.0,4.0,67,0.00,,,0.00,,2013-06-30 04:43:00,
2013-06-29 22:52:00,64.0,53.0,30.24,SE,135,1.0,2.0,68,0.00,,,0.00,,2013-06-30 04:52:00,
2013-06-29 23:02:00,63.0,53.0,30.24,SE,135,1.0,2.0,71,0.00,,,0.00,,2013-06-30 05:02:00,
2013-06-29 23:11:00,62.0,52.0,30.24,SE,135,0.0,2.0,71,0.00,,,0.00,,2013-06-30 05:11:00,
2013-06-29 23:22:00,62.0,53.0,30.25,North,0,0.0,2.0,72,0.00,,,0.00,,2013-06-30 05:22:00,
2013-06-29 23:33:00,61.0,52.0,30.25,South,180,1.0,4.0,73,0.00,,,0.00,,2013-06-30 05:33:00,
2013-06-29 23:43:00,61.0,53.0,30.24,SE,135,2.0,4.0,74,0.00,,,0.00,,2013-06-30 05:43:00,
2013-06-29 23:53:00,61.0,53.0,30.24,SE,135,0.0,1.0,75,0.00,,,0.00,,2013-06-30 05:53:00,